Time;durP1;ratioP1;P1;durP2;ratioP2;P2;SDS_P1;SDS_P2;PMS_P1;PMS_P2;Temp;Humidity;BMP_temperature;BMP_pressure;BME280_temperature;BME280_humidity;BME280_pressure;Samples;Min_cycle;Max_cycle;Signal;HPM_P1;HPM_P2
2023/04/24 00:01:39;;;;;;;0.63;0.63;;;;;;;;;;4948283;28;101307;-79
2023/04/24 00:04:06;;;;;;;0.88;0.63;;;;;;;;;;4946244;28;99014;-79
2023/04/24 00:06:33;;;;;;;1.00;0.70;;;;;;;;;;4945650;28;99214;-78
2023/04/24 00:09:00;;;;;;;1.38;0.80;;;;;;;;;;4946293;28;99045;-78
2023/04/24 00:11:27;;;;;;;3.08;1.00;;;;;;;;;;4946188;28;99456;-78
2023/04/24 00:13:54;;;;;;;2.20;0.93;;;;;;;;;;4945761;28;99219;-78
2023/04/24 00:16:21;;;;;;;2.15;1.30;;;;;;;;;;4945730;28;98836;-78
2023/04/24 00:18:48;;;;;;;2.60;1.27;;;;;;;;;;4945058;28;99269;-78
2023/04/24 00:21:15;;;;;;;2.03;1.10;;;;;;;;;;4911141;28;100448;-79
2023/04/24 00:23:42;;;;;;;3.13;1.30;;;;;;;;;;4948913;28;99099;-79
2023/04/24 00:26:09;;;;;;;1.95;1.25;;;;;;;;;;4943838;28;99797;-78
2023/04/24 00:28:35;;;;;;;3.58;1.33;;;;;;;;;;4944881;28;98534;-78
2023/04/24 00:31:02;;;;;;;2.22;1.30;;;;;;;;;;4945307;28;98881;-78
2023/04/24 00:33:29;;;;;;;2.45;1.10;;;;;;;;;;4926886;28;99432;-78
2023/04/24 00:35:55;;;;;;;2.33;0.90;;;;;;;;;;4946326;28;98394;-79
2023/04/24 00:38:22;;;;;;;1.38;0.90;;;;;;;;;;4939497;28;98661;-79
2023/04/24 00:40:50;;;;;;;2.60;1.10;;;;;;;;;;4943561;28;99617;-78
2023/04/24 00:43:16;;;;;;;2.22;0.80;;;;;;;;;;4910789;28;99740;-78
2023/04/24 00:45:43;;;;;;;2.80;1.00;;;;;;;;;;4946588;28;102557;-78
2023/04/24 00:48:10;;;;;;;2.22;1.27;;;;;;;;;;4945658;28;98970;-78
2023/04/24 00:50:38;;;;;;;1.50;1.10;;;;;;;;;;4944775;28;105081;-78
2023/04/24 00:53:04;;;;;;;3.58;0.95;;;;;;;;;;4944793;28;99420;-78
2023/04/24 00:55:31;;;;;;;4.68;1.10;;;;;;;;;;4944550;28;98784;-78
2023/04/24 00:57:58;;;;;;;2.13;1.17;;;;;;;;;;4931265;28;98824;-78
2023/04/24 01:00:25;;;;;;;3.70;1.05;;;;;;;;;;4942084;28;99397;-78
2023/04/24 01:02:53;;;;;;;2.97;1.42;;;;;;;;;;4923651;28;99097;-79
2023/04/24 01:05:19;;;;;;;2.35;1.33;;;;;;;;;;4935062;28;99217;-79
2023/04/24 01:07:48;;;;;;;2.03;1.30;;;;;;;;;;4947103;28;101026;-79
2023/04/24 01:10:14;;;;;;;4.60;1.60;;;;;;;;;;4941358;28;102251;-79
2023/04/24 01:12:41;;;;;;;3.17;1.40;;;;;;;;;;4944682;28;99002;-78
2023/04/24 01:15:08;;;;;;;1.98;1.15;;;;;;;;;;4944318;28;98564;-78
2023/04/24 01:17:34;;;;;;;1.95;0.90;;;;;;;;;;4942541;28;101702;-79
2023/04/24 01:20:04;;;;;;;1.90;1.05;;;;;;;;;;4942277;28;100787;-78
2023/04/24 01:22:30;;;;;;;2.38;1.05;;;;;;;;;;4926900;28;99353;-79
2023/04/24 01:24:57;;;;;;;2.97;1.50;;;;;;;;;;4945044;28;98714;-79
2023/04/24 01:27:23;;;;;;;3.22;1.10;;;;;;;;;;4944629;28;99031;-79
2023/04/24 01:29:51;;;;;;;2.08;1.40;;;;;;;;;;4951203;28;98867;-79
2023/04/24 01:32:18;;;;;;;2.75;1.33;;;;;;;;;;4942286;28;99791;-80
2023/04/24 01:34:45;;;;;;;3.90;1.80;;;;;;;;;;4943929;28;98789;-79
2023/04/24 01:37:11;;;;;;;1.45;0.88;;;;;;;;;;4943873;28;98649;-80
2023/04/24 01:39:38;;;;;;;3.17;1.30;;;;;;;;;;4910025;28;100274;-80
2023/04/24 01:42:05;;;;;;;3.88;1.60;;;;;;;;;;4944137;28;98709;-79
2023/04/24 01:44:33;;;;;;;1.95;1.10;;;;;;;;;;4943359;28;98709;-78
2023/04/24 01:46:59;;;;;;;;;;;;;;;;;;4949064;28;102449;-79
2023/04/24 01:49:26;;;;;;;2.50;1.17;;;;;;;;;;4945507;28;112430;-79
2023/04/24 01:51:52;;;;;;;3.40;1.48;;;;;;;;;;4947269;28;100151;-79
2023/04/24 01:54:22;;;;;;;2.20;1.55;;;;;;;;;;4942730;28;98982;-79
2023/04/24 01:56:50;;;;;;;2.40;1.40;;;;;;;;;;4941178;28;101597;-79
2023/04/24 01:59:16;;;;;;;2.50;1.30;;;;;;;;;;4925451;28;102310;-80
2023/04/24 02:01:43;;;;;;;2.55;1.02;;;;;;;;;;4944041;28;99852;-80
2023/04/24 02:04:10;;;;;;;3.33;1.23;;;;;;;;;;4941889;28;101375;-78
2023/04/24 02:06:37;;;;;;;4.32;1.10;;;;;;;;;;4946080;28;104050;-79
2023/04/24 02:09:03;;;;;;;2.10;1.10;;;;;;;;;;4947435;28;98776;-78
2023/04/24 02:11:30;;;;;;;1.52;0.75;;;;;;;;;;4934804;28;101257;-78
2023/04/24 02:13:56;;;;;;;2.80;1.42;;;;;;;;;;4943017;28;98690;-78
2023/04/24 02:16:23;;;;;;;1.63;1.10;;;;;;;;;;4942867;28;99687;-78
2023/04/24 02:18:50;;;;;;;2.35;0.98;;;;;;;;;;4942704;28;100519;-78
2023/04/24 02:21:16;;;;;;;4.28;1.00;;;;;;;;;;4943100;28;99595;-79
2023/04/24 02:23:43;;;;;;;2.33;1.10;;;;;;;;;;4941888;28;102549;-78
2023/04/24 02:26:11;;;;;;;2.22;1.02;;;;;;;;;;4942301;28;99063;-79
2023/04/24 02:28:38;;;;;;;1.55;1.00;;;;;;;;;;4914949;28;98620;-79
2023/04/24 02:31:05;;;;;;;2.25;1.00;;;;;;;;;;4942877;28;98883;-78
2023/04/24 02:33:32;;;;;;;3.20;1.30;;;;;;;;;;4944803;28;103259;-78
2023/04/24 02:35:59;;;;;;;1.67;1.02;;;;;;;;;;4909472;28;100700;-79
2023/04/24 02:38:25;;;;;;;3.20;1.33;;;;;;;;;;4943379;28;98871;-79
2023/04/24 02:40:52;;;;;;;1.65;1.10;;;;;;;;;;4942320;28;99120;-80
2023/04/24 02:43:19;;;;;;;1.92;1.20;;;;;;;;;;4942067;28;102090;-80
2023/04/24 02:45:45;;;;;;;2.65;1.42;;;;;;;;;;4940024;28;100278;-80
2023/04/24 02:48:12;;;;;;;1.75;1.08;;;;;;;;;;4944541;28;98681;-81
2023/04/24 02:50:39;;;;;;;2.47;1.05;;;;;;;;;;4929196;28;101862;-81
2023/04/24 02:53:05;;;;;;;2.35;1.10;;;;;;;;;;4946459;28;99287;-81
2023/04/24 02:55:32;;;;;;;2.35;1.38;;;;;;;;;;4931047;28;99033;-79
2023/04/24 02:57:58;;;;;;;2.33;1.17;;;;;;;;;;4946248;28;99380;-79
2023/04/24 03:00:25;;;;;;;2.97;1.20;;;;;;;;;;4945388;28;105633;-80
2023/04/24 03:02:51;;;;;;;2.40;1.20;;;;;;;;;;4945598;28;101750;-80
2023/04/24 03:05:18;;;;;;;2.03;1.00;;;;;;;;;;4944923;28;101733;-80
2023/04/24 03:07:45;;;;;;;3.17;1.23;;;;;;;;;;4941193;28;98860;-81
2023/04/24 03:10:12;;;;;;;1.85;1.00;;;;;;;;;;4946051;28;99670;-81
2023/04/24 03:12:38;;;;;;;4.93;1.25;;;;;;;;;;4945333;28;99150;-81
2023/04/24 03:15:05;;;;;;;4.00;1.13;;;;;;;;;;4944539;28;98811;-80
2023/04/24 03:17:32;;;;;;;3.42;1.20;;;;;;;;;;4949590;28;100139;-79
2023/04/24 03:19:59;;;;;;;1.33;1.02;;;;;;;;;;4945986;28;98585;-79
2023/04/24 03:22:25;;;;;;;1.75;1.00;;;;;;;;;;4919300;28;101992;-80
2023/04/24 03:24:52;;;;;;;2.08;1.13;;;;;;;;;;4928151;28;101760;-79
2023/04/24 03:27:19;;;;;;;2.33;1.00;;;;;;;;;;4927848;28;98372;-80
2023/04/24 03:30:14;;;;;;;2.20;1.00;;;;;;;;;;4863861;28;99142;-79
2023/04/24 03:32:49;;;;;;;2.10;1.02;;;;;;;;;;4928315;28;101971;-78
2023/04/24 03:35:21;;;;;;;1.42;0.93;;;;;;;;;;4927515;28;99803;-80
2023/04/24 03:37:48;;;;;;;2.85;1.05;;;;;;;;;;4945221;28;102232;-79
2023/04/24 03:40:40;;;;;;;2.85;1.30;;;;;;;;;;4916866;28;103658;-80
2023/04/24 03:43:27;;;;;;;3.40;0.90;;;;;;;;;;4942244;28;98835;-80
2023/04/24 03:45:56;;;;;;;1.92;1.02;;;;;;;;;;4925775;28;100619;-80
2023/04/24 03:48:23;;;;;;;2.30;0.90;;;;;;;;;;4931556;28;99018;-80
2023/04/24 03:50:50;;;;;;;2.00;0.90;;;;;;;;;;4946110;28;100124;-80
2023/04/24 03:53:17;;;;;;;2.55;1.13;;;;;;;;;;4950450;28;100850;-79
2023/04/24 03:55:43;;;;;;;3.25;1.00;;;;;;;;;;4942881;28;98574;-79
2023/04/24 03:58:11;;;;;;;5.72;1.35;;;;;;;;;;4945357;28;100195;-79
2023/04/24 04:00:37;;;;;;;2.47;1.20;;;;;;;;;;4942385;28;107633;-78
2023/04/24 04:03:27;;;;;;;3.58;1.20;;;;;;;;;;4935365;28;98843;-79
2023/04/24 04:05:54;;;;;;;1.83;0.90;;;;;;;;;;4945301;28;99588;-79
2023/04/24 04:08:20;;;;;;;1.73;0.98;;;;;;;;;;4943532;28;99901;-79
2023/04/24 04:10:47;;;;;;;1.65;0.85;;;;;;;;;;4943183;28;101309;-79
2023/04/24 04:13:14;;;;;;;1.00;0.73;;;;;;;;;;4927158;28;100284;-78
2023/04/24 04:15:40;;;;;;;1.48;0.90;;;;;;;;;;4945393;28;99126;-80
2023/04/24 04:18:08;;;;;;;3.50;1.10;;;;;;;;;;4944403;28;102043;-80
2023/04/24 04:20:34;;;;;;;;;;;;;;;;;;4931839;28;101620;-80
2023/04/24 04:23:01;;;;;;;3.08;0.98;;;;;;;;;;4950036;28;101135;-80
2023/04/24 04:25:40;;;;;;;2.22;0.85;;;;;;;;;;4943396;28;100493;-82
2023/04/24 04:28:08;;;;;;;2.08;0.80;;;;;;;;;;4927594;28;98652;-81
2023/04/24 04:30:38;;;;;;;3.00;1.00;;;;;;;;;;4926944;28;108425;-80
2023/04/24 04:33:04;;;;;;;2.35;0.80;;;;;;;;;;4943303;28;98572;-80
2023/04/24 04:35:32;;;;;;;;;;;;;;;;;;4943975;28;99055;-81
2023/04/24 04:37:59;;;;;;;1.20;0.90;;;;;;;;;;4945618;28;99113;-81
2023/04/24 04:40:45;;;;;;;3.15;0.80;;;;;;;;;;4926130;28;106532;-80
2023/04/24 04:43:15;;;;;;;2.03;0.90;;;;;;;;;;4944441;28;98372;-80
2023/04/24 04:45:49;;;;;;;2.40;0.90;;;;;;;;;;4945593;28;100854;-81
2023/04/24 04:48:34;;;;;;;;;;;;;;;;;;4944583;28;98897;-80
2023/04/24 04:51:04;;;;;;;1.70;0.80;;;;;;;;;;4944722;28;100818;-80
2023/04/24 04:53:31;;;;;;;1.75;0.90;;;;;;;;;;4943021;28;101490;-81
2023/04/24 04:55:57;;;;;;;2.10;1.00;;;;;;;;;;4939668;28;99698;-79
2023/04/24 04:58:33;;;;;;;3.15;1.10;;;;;;;;;;4947120;28;100282;-79
2023/04/24 05:01:02;;;;;;;2.90;1.02;;;;;;;;;;4941853;28;101043;-79
2023/04/24 05:03:38;;;;;;;2.85;1.00;;;;;;;;;;4943636;28;98779;-79
2023/04/24 05:06:08;;;;;;;2.58;1.15;;;;;;;;;;4931437;28;100918;-80
2023/04/24 05:08:37;;;;;;;4.20;1.90;;;;;;;;;;4929832;28;105131;-79
2023/04/24 05:11:07;;;;;;;4.63;1.77;;;;;;;;;;4928532;28;100785;-80
2023/04/24 05:13:33;;;;;;;4.40;1.70;;;;;;;;;;4928305;28;100177;-80
2023/04/24 05:16:11;;;;;;;4.63;1.70;;;;;;;;;;4925673;28;100012;-79
2023/04/24 05:18:38;;;;;;;4.35;1.50;;;;;;;;;;4943256;28;99267;-80
2023/04/24 05:21:06;;;;;;;3.65;1.38;;;;;;;;;;4911904;28;101592;-81
2023/04/24 05:23:34;;;;;;;3.63;1.50;;;;;;;;;;4943300;28;98778;-80
2023/04/24 05:26:00;;;;;;;2.85;1.30;;;;;;;;;;4943653;28;101982;-80
2023/04/24 05:28:28;;;;;;;3.17;1.20;;;;;;;;;;4924775;28;101999;-79
2023/04/24 05:31:05;;;;;;;3.78;1.20;;;;;;;;;;4939805;28;98571;-80
2023/04/24 05:33:32;;;;;;;1.67;1.10;;;;;;;;;;4939878;28;100700;-80
2023/04/24 05:35:58;;;;;;;3.95;1.23;;;;;;;;;;4943360;28;98730;-79
2023/04/24 05:38:25;;;;;;;2.83;1.20;;;;;;;;;;4942993;28;98681;-79
2023/04/24 05:40:51;;;;;;;2.20;1.13;;;;;;;;;;4943096;28;102200;-79
2023/04/24 05:43:18;;;;;;;3.05;1.05;;;;;;;;;;4944150;28;98909;-80
2023/04/24 05:45:45;;;;;;;2.78;1.13;;;;;;;;;;4937257;28;101820;-78
2023/04/24 05:48:12;;;;;;;3.40;1.23;;;;;;;;;;4943707;28;99123;-80
2023/04/24 05:50:39;;;;;;;2.28;1.10;;;;;;;;;;4927320;28;98923;-82
2023/04/24 05:53:07;;;;;;;4.65;1.30;;;;;;;;;;4950019;28;100154;-80
2023/04/24 05:55:35;;;;;;;3.97;1.25;;;;;;;;;;4944506;28;99002;-82
2023/04/24 05:58:02;;;;;;;6.60;1.20;;;;;;;;;;4944928;28;101665;-80
2023/04/24 06:00:29;;;;;;;4.32;1.65;;;;;;;;;;4942436;28;99231;-81
2023/04/24 06:03:04;;;;;;;6.03;1.50;;;;;;;;;;4944348;28;98631;-81
2023/04/24 06:05:31;;;;;;;6.90;1.63;;;;;;;;;;4942885;28;101669;-81
2023/04/24 06:07:58;;;;;;;4.32;1.60;;;;;;;;;;4943495;28;100314;-80
2023/04/24 06:10:29;;;;;;;5.28;1.30;;;;;;;;;;4925581;28;98612;-82
2023/04/24 06:12:59;;;;;;;3.63;1.55;;;;;;;;;;4931510;28;100013;-84
2023/04/24 06:15:33;;;;;;;4.47;1.33;;;;;;;;;;4931672;28;99450;-82
2023/04/24 06:18:06;;;;;;;3.05;1.38;;;;;;;;;;4935407;28;101712;-81
2023/04/24 06:20:33;;;;;;;1.20;0.90;;;;;;;;;;4941368;28;101796;-82
2023/04/24 06:23:01;;;;;;;2.40;1.00;;;;;;;;;;4938958;28;97982;-81
2023/04/24 06:25:27;;;;;;;4.05;1.10;;;;;;;;;;4943899;28;98667;-81
2023/04/24 06:27:54;;;;;;;1.90;0.90;;;;;;;;;;4944485;28;99323;-82
2023/04/24 06:30:21;;;;;;;2.65;0.82;;;;;;;;;;4940477;28;99321;-82
2023/04/24 06:32:48;;;;;;;1.90;0.80;;;;;;;;;;4935501;28;100013;-82
2023/04/24 06:35:14;;;;;;;5.40;0.98;;;;;;;;;;4959533;28;99556;-81
2023/04/24 06:37:41;;;;;;;1.98;0.80;;;;;;;;;;4948255;28;99447;-81
2023/04/24 06:40:08;;;;;;;1.70;0.90;;;;;;;;;;4942836;28;101962;-82
2023/04/24 06:42:35;;;;;;;4.20;0.98;;;;;;;;;;4943882;28;99301;-83
2023/04/24 06:45:03;;;;;;;3.20;0.90;;;;;;;;;;4941845;28;99937;-83
2023/04/24 06:47:29;;;;;;;2.90;0.90;;;;;;;;;;4942929;28;98296;-83
2023/04/24 06:49:56;;;;;;;4.07;1.00;;;;;;;;;;4943084;28;99014;-82
2023/04/24 06:52:23;;;;;;;2.20;1.08;;;;;;;;;;4934002;28;99494;-84
2023/04/24 06:54:49;;;;;;;4.60;1.20;;;;;;;;;;4924194;28;101178;-84
2023/04/24 06:57:17;;;;;;;2.75;1.13;;;;;;;;;;4946378;28;98591;-84
2023/04/24 06:59:43;;;;;;;;;;;;;;;;;;4925758;28;99147;-84
2023/04/24 07:02:10;;;;;;;2.83;1.02;;;;;;;;;;4945193;28;98978;-86
2023/04/24 07:04:37;;;;;;;3.20;1.30;;;;;;;;;;4943854;28;103262;-84
2023/04/24 07:07:04;;;;;;;4.75;1.60;;;;;;;;;;4943479;28;99726;-85
2023/04/24 07:09:31;;;;;;;5.55;1.95;;;;;;;;;;4944046;28;99043;-84
2023/04/24 07:11:58;;;;;;;;;;;;;;;;;;4944476;28;100608;-84
2023/04/24 07:14:25;;;;;;;3.70;1.40;;;;;;;;;;4944574;28;108285;-86
2023/04/24 07:16:51;;;;;;;4.65;1.70;;;;;;;;;;4944681;28;98755;-85
2023/04/24 07:19:18;;;;;;;4.30;1.70;;;;;;;;;;4947134;28;99802;-86
2023/04/24 07:21:45;;;;;;;6.57;1.70;;;;;;;;;;4942902;28;98823;-85
2023/04/24 07:24:12;;;;;;;9.35;2.33;;;;;;;;;;4942424;28;99275;-84
2023/04/24 07:26:39;;;;;;;6.45;2.00;;;;;;;;;;4942226;28;99679;-86
2023/04/24 07:29:06;;;;;;;;;;;;;;;;;;4943805;28;99269;-84
2023/04/24 07:31:32;;;;;;;5.82;2.03;;;;;;;;;;4945372;28;106553;-84
2023/04/24 07:33:59;;;;;;;6.80;2.35;;;;;;;;;;4928546;28;99725;-84
2023/04/24 07:36:27;;;;;;;7.53;2.53;;;;;;;;;;4948402;28;98676;-85
2023/04/24 07:38:55;;;;;;;7.65;2.50;;;;;;;;;;4947706;28;98555;-86
2023/04/24 07:41:22;;;;;;;4.55;1.60;;;;;;;;;;4949715;28;101984;-86
2023/04/24 07:43:53;;;;;;;3.70;1.17;;;;;;;;;;4946692;28;100445;-86
2023/04/24 07:46:20;;;;;;;6.53;1.20;;;;;;;;;;4947855;28;99700;-86
2023/04/24 07:48:47;;;;;;;2.95;1.08;;;;;;;;;;4954278;28;98987;-86
2023/04/24 07:51:27;;;;;;;3.28;1.10;;;;;;;;;;4958831;28;99711;-84
2023/04/24 07:53:57;;;;;;;2.72;1.02;;;;;;;;;;4935799;28;99246;-83
2023/04/24 07:56:23;;;;;;;1.88;1.00;;;;;;;;;;4942962;28;98717;-84
2023/04/24 07:58:53;;;;;;;1.92;1.02;;;;;;;;;;4955569;28;98634;-87
2023/04/24 08:01:19;;;;;;;2.38;1.10;;;;;;;;;;4942591;28;98036;-85
2023/04/24 08:03:46;;;;;;;3.25;1.20;;;;;;;;;;4971664;28;98401;-85
2023/04/24 08:06:12;;;;;;;3.20;1.20;;;;;;;;;;4951080;28;98505;-83
2023/04/24 08:08:39;;;;;;;5.75;1.20;;;;;;;;;;4966699;28;99871;-85
2023/04/24 08:11:06;;;;;;;7.15;1.42;;;;;;;;;;4966255;28;99618;-84
2023/04/24 08:13:32;;;;;;;3.65;1.33;;;;;;;;;;4961838;28;100510;-83
2023/04/24 08:15:59;;;;;;;3.58;1.30;;;;;;;;;;4947785;28;100204;-85
2023/04/24 08:18:26;;;;;;;3.10;1.30;;;;;;;;;;4962902;28;98825;-84
2023/04/24 08:20:52;;;;;;;7.43;1.38;;;;;;;;;;4960523;28;101778;-82
2023/04/24 08:23:19;;;;;;;3.33;1.30;;;;;;;;;;4959882;28;98979;-82
2023/04/24 08:25:46;;;;;;;3.83;1.80;;;;;;;;;;4952833;28;98293;-83
2023/04/24 08:28:12;;;;;;;5.22;1.58;;;;;;;;;;4951472;28;98481;-81
2023/04/24 08:30:42;;;;;;;4.20;1.40;;;;;;;;;;4949837;28;99848;-81
2023/04/24 08:33:09;;;;;;;5.72;1.50;;;;;;;;;;4950281;28;99872;-81
2023/04/24 08:35:35;;;;;;;3.38;1.25;;;;;;;;;;4950002;28;98920;-83
2023/04/24 08:38:02;;;;;;;3.50;1.30;;;;;;;;;;4929923;28;101841;-82
2023/04/24 08:40:30;;;;;;;5.05;1.45;;;;;;;;;;4943480;28;101043;-82
2023/04/24 08:42:56;;;;;;;4.50;1.48;;;;;;;;;;4945201;28;98846;-82
2023/04/24 08:45:23;;;;;;;4.07;1.40;;;;;;;;;;4945863;28;98843;-81
2023/04/24 08:47:52;;;;;;;4.45;1.20;;;;;;;;;;4946997;28;98838;-81
2023/04/24 08:50:18;;;;;;;3.80;1.48;;;;;;;;;;4953361;28;98816;-80
2023/04/24 08:52:45;;;;;;;5.90;1.58;;;;;;;;;;4928360;28;99451;-82
2023/04/24 08:55:12;;;;;;;4.05;1.48;;;;;;;;;;4945517;28;99044;-82
2023/04/24 08:57:40;;;;;;;4.43;1.33;;;;;;;;;;4916238;28;101446;-82
2023/04/24 09:00:07;;;;;;;3.88;1.40;;;;;;;;;;4945143;28;99118;-83
2023/04/24 09:02:39;;;;;;;2.72;1.20;;;;;;;;;;4945852;28;99123;-83
2023/04/24 09:05:07;;;;;;;4.85;1.50;;;;;;;;;;4951578;28;99387;-83
2023/04/24 09:07:35;;;;;;;4.97;1.58;;;;;;;;;;4947830;28;99320;-83
2023/04/24 09:10:02;;;;;;;30.08;14.18;;;;;;;;;;4945672;28;99000;-82
2023/04/24 09:12:29;;;;;;;25.50;12.43;;;;;;;;;;4943375;28;99538;-82
2023/04/24 09:14:56;;;;;;;34.75;16.42;;;;;;;;;;4928400;28;97899;-82
2023/04/24 09:17:23;;;;;;;;;;;;;;;;;;4940265;28;100070;-81
2023/04/24 09:19:49;;;;;;;29.85;13.75;;;;;;;;;;4943914;28;120721;-81
2023/04/24 09:22:16;;;;;;;23.77;11.48;;;;;;;;;;4944069;28;99538;-80
2023/04/24 09:24:45;;;;;;;27.95;11.50;;;;;;;;;;4944145;28;99669;-83
2023/04/24 09:27:16;;;;;;;22.92;10.18;;;;;;;;;;4941636;28;101863;-81
2023/04/24 09:29:53;;;;;;;20.90;9.88;;;;;;;;;;4945590;28;98893;-82
2023/04/24 09:32:21;;;;;;;20.88;9.13;;;;;;;;;;4924782;28;101877;-82
2023/04/24 09:34:48;;;;;;;19.55;9.45;;;;;;;;;;4943296;28;99366;-82
2023/04/24 09:37:27;;;;;;;20.10;8.50;;;;;;;;;;4943955;28;99995;-82
2023/04/24 09:40:29;;;;;;;19.20;9.00;;;;;;;;;;4944140;28;98388;-82
2023/04/24 09:43:01;;;;;;;18.35;7.70;;;;;;;;;;4863230;28;98987;-82
2023/04/24 09:45:28;;;;;;;20.58;8.00;;;;;;;;;;4927990;28;99145;-82
2023/04/24 09:47:55;;;;;;;16.63;7.47;;;;;;;;;;4939709;28;100042;-80
2023/04/24 09:50:22;;;;;;;;;;;;;;;;;;4943351;28;98772;-81
2023/04/24 09:52:56;;;;;;;15.75;6.80;;;;;;;;;;4947235;28;99220;-81
2023/04/24 09:55:23;;;;;;;16.40;7.00;;;;;;;;;;4943035;28;98734;-82
2023/04/24 09:57:50;;;;;;;15.52;6.70;;;;;;;;;;4943448;28;99814;-81
2023/04/24 10:00:27;;;;;;;13.93;6.25;;;;;;;;;;4924777;28;99356;-81
2023/04/24 10:02:57;;;;;;;15.68;6.40;;;;;;;;;;4944099;28;98527;-81
2023/04/24 10:05:26;;;;;;;19.50;6.60;;;;;;;;;;4943224;28;99165;-83
2023/04/24 10:07:55;;;;;;;13.60;5.75;;;;;;;;;;4943698;28;99120;-81
2023/04/24 10:10:22;;;;;;;14.48;5.90;;;;;;;;;;4942036;28;98882;-81
2023/04/24 10:12:49;;;;;;;14.13;6.28;;;;;;;;;;4938403;28;99601;-81
2023/04/24 10:15:20;;;;;;;13.80;5.80;;;;;;;;;;4938951;28;99441;-81
2023/04/24 10:17:51;;;;;;;14.43;6.00;;;;;;;;;;4944970;28;99134;-81
2023/04/24 10:20:26;;;;;;;14.15;5.60;;;;;;;;;;4942854;28;99337;-81
2023/04/24 10:22:53;;;;;;;12.85;5.32;;;;;;;;;;4943379;28;98662;-81
2023/04/24 10:25:21;;;;;;;14.13;5.70;;;;;;;;;;4936121;28;98955;-81
2023/04/24 10:27:48;;;;;;;12.82;4.70;;;;;;;;;;4943871;28;99024;-81
2023/04/24 10:30:15;;;;;;;11.82;5.18;;;;;;;;;;4943335;28;98361;-80
2023/04/24 10:32:42;;;;;;;13.55;5.07;;;;;;;;;;4943882;28;98889;-80
2023/04/24 10:35:09;;;;;;;10.88;4.47;;;;;;;;;;4944636;28;99156;-80
2023/04/24 10:37:40;;;;;;;10.43;4.43;;;;;;;;;;4924949;28;102071;-80
2023/04/24 10:40:08;;;;;;;11.55;4.30;;;;;;;;;;4925130;28;100625;-80
2023/04/24 10:42:35;;;;;;;11.02;4.57;;;;;;;;;;4942324;28;98637;-80
2023/04/24 10:45:05;;;;;;;11.10;4.20;;;;;;;;;;4942748;28;99306;-81
2023/04/24 10:47:41;;;;;;;10.70;3.75;;;;;;;;;;4942645;28;99144;-81
2023/04/24 10:50:10;;;;;;;9.30;3.90;;;;;;;;;;4941345;28;99019;-80
2023/04/24 10:52:46;;;;;;;9.55;3.72;;;;;;;;;;4924823;28;103306;-80
2023/04/24 10:55:14;;;;;;;9.90;4.10;;;;;;;;;;4909685;28;98378;-81
2023/04/24 10:58:00;;;;;;;9.60;3.72;;;;;;;;;;4945735;28;99244;-80
2023/04/24 11:00:27;;;;;;;8.60;3.28;;;;;;;;;;4942311;28;99841;-81
2023/04/24 11:02:55;;;;;;;9.40;3.67;;;;;;;;;;4942574;28;99702;-82
2023/04/24 11:05:22;;;;;;;11.35;3.40;;;;;;;;;;4935614;28;99839;-83
2023/04/24 11:08:06;;;;;;;8.73;3.28;;;;;;;;;;4940684;28;99493;-82
2023/04/24 11:10:33;;;;;;;8.90;3.40;;;;;;;;;;4938104;28;99185;-84
2023/04/24 11:13:01;;;;;;;9.00;3.50;;;;;;;;;;4944573;28;99214;-82
2023/04/24 11:15:29;;;;;;;10.20;3.22;;;;;;;;;;4948419;28;99630;-82
2023/04/24 11:17:56;;;;;;;8.00;3.00;;;;;;;;;;4946851;28;98990;-83
2023/04/24 11:20:23;;;;;;;9.57;3.08;;;;;;;;;;4944872;28;98945;-83
2023/04/24 11:22:54;;;;;;;10.63;3.50;;;;;;;;;;4945048;28;99126;-83
2023/04/24 11:25:24;;;;;;;8.25;3.00;;;;;;;;;;4929271;28;101405;-83
2023/04/24 11:28:02;;;;;;;10.27;3.13;;;;;;;;;;4944636;28;100890;-83
2023/04/24 11:30:29;;;;;;;7.82;2.78;;;;;;;;;;4925587;28;98974;-83
2023/04/24 11:33:01;;;;;;;8.75;2.80;;;;;;;;;;4946007;28;98600;-80
2023/04/24 11:35:30;;;;;;;8.52;3.00;;;;;;;;;;4943932;28;100074;-82
2023/04/24 11:37:57;;;;;;;14.63;3.30;;;;;;;;;;4925673;28;99189;-81
2023/04/24 11:40:26;;;;;;;9.45;2.65;;;;;;;;;;4944551;28;100439;-84
2023/04/24 11:42:55;;;;;;;10.77;2.90;;;;;;;;;;4945978;28;99448;-80
2023/04/24 11:45:26;;;;;;;9.95;2.97;;;;;;;;;;4940782;28;98965;-83
2023/04/24 11:47:53;;;;;;;8.95;2.67;;;;;;;;;;4943032;28;102426;-82
2023/04/24 11:50:21;;;;;;;8.93;2.40;;;;;;;;;;4943747;28;99110;-82
2023/04/24 11:52:49;;;;;;;8.88;2.63;;;;;;;;;;4945589;28;99910;-82
2023/04/24 11:55:16;;;;;;;9.13;2.40;;;;;;;;;;4947297;28;99137;-82
2023/04/24 11:57:44;;;;;;;8.93;2.42;;;;;;;;;;4949629;28;100860;-82
2023/04/24 12:00:17;;;;;;;8.05;2.45;;;;;;;;;;4946366;28;98995;-82
2023/04/24 12:02:44;;;;;;;7.00;2.25;;;;;;;;;;4929210;28;100938;-81
2023/04/24 12:05:21;;;;;;;6.88;2.10;;;;;;;;;;4943491;28;98734;-81
2023/04/24 12:07:48;;;;;;;6.78;2.20;;;;;;;;;;4947598;28;99929;-81
2023/04/24 12:10:19;;;;;;;6.07;2.20;;;;;;;;;;4926636;28;105108;-82
2023/04/24 12:12:46;;;;;;;8.90;2.38;;;;;;;;;;4947069;28;98574;-81
2023/04/24 12:15:15;;;;;;;6.43;2.17;;;;;;;;;;4947110;28;99262;-81
2023/04/24 12:17:42;;;;;;;5.93;2.00;;;;;;;;;;4946541;28;99561;-82
2023/04/24 12:20:08;;;;;;;7.07;2.15;;;;;;;;;;4945585;28;102725;-82
2023/04/24 12:22:54;;;;;;;4.97;2.20;;;;;;;;;;4938741;28;103519;-83
2023/04/24 12:25:27;;;;;;;9.50;2.10;;;;;;;;;;4944451;28;99028;-83
2023/04/24 12:27:55;;;;;;;6.68;2.20;;;;;;;;;;4949197;28;98751;-81
2023/04/24 12:30:27;;;;;;;8.27;2.17;;;;;;;;;;4942894;28;98883;-84
2023/04/24 12:32:54;;;;;;;7.82;2.42;;;;;;;;;;4944969;28;99824;-81
2023/04/24 12:35:25;;;;;;;5.82;1.92;;;;;;;;;;4924145;28;99048;-85
2023/04/24 12:37:51;;;;;;;5.25;1.77;;;;;;;;;;4944653;28;98857;-86
2023/04/24 12:40:19;;;;;;;5.85;1.98;;;;;;;;;;4944232;28;100138;-83
2023/04/24 12:42:47;;;;;;;5.13;1.63;;;;;;;;;;4926472;28;103238;-83
2023/04/24 12:45:13;;;;;;;;;;;;;;;;;;4946633;28;98983;-84
2023/04/24 12:47:40;;;;;;;6.13;1.83;;;;;;;;;;4947859;28;111309;-84
2023/04/24 12:50:07;;;;;;;5.55;1.90;;;;;;;;;;4951957;28;98973;-84
2023/04/24 12:52:34;;;;;;;7.57;1.55;;;;;;;;;;4940983;28;100307;-83
2023/04/24 12:55:00;;;;;;;5.65;1.70;;;;;;;;;;4943285;28;99852;-82
2023/04/24 12:57:28;;;;;;;5.80;1.70;;;;;;;;;;4930212;28;99143;-82
2023/04/24 12:59:55;;;;;;;;;;;;;;;;;;4946373;28;98615;-83
2023/04/24 13:02:26;;;;;;;6.25;2.00;;;;;;;;;;4939881;28;100886;-81
2023/04/24 13:04:53;;;;;;;8.10;2.10;;;;;;;;;;4943823;28;98623;-81
2023/04/24 13:07:20;;;;;;;5.18;1.77;;;;;;;;;;4941771;28;99838;-81
2023/04/24 13:09:47;;;;;;;6.55;1.63;;;;;;;;;;4927935;28;102406;-82
2023/04/24 13:12:14;;;;;;;5.45;1.67;;;;;;;;;;4940328;28;100126;-82
2023/04/24 13:14:40;;;;;;;5.25;1.70;;;;;;;;;;4942781;28;99176;-82
2023/04/24 13:17:07;;;;;;;4.43;1.50;;;;;;;;;;4943484;28;99049;-82
2023/04/24 13:19:37;;;;;;;4.78;1.50;;;;;;;;;;4945229;28;99897;-81
2023/04/24 13:22:03;;;;;;;5.05;1.70;;;;;;;;;;4948863;28;100201;-84
2023/04/24 13:24:31;;;;;;;5.07;1.58;;;;;;;;;;4945407;28;98265;-81
2023/04/24 13:26:57;;;;;;;6.05;1.73;;;;;;;;;;4943506;28;102490;-84
2023/04/24 13:29:24;;;;;;;5.10;1.50;;;;;;;;;;4943249;28;99348;-83
2023/04/24 13:31:51;;;;;;;4.70;1.50;;;;;;;;;;4951462;28;99306;-81
2023/04/24 13:34:17;;;;;;;4.78;1.42;;;;;;;;;;4942621;28;100152;-84
2023/04/24 13:36:44;;;;;;;5.05;1.50;;;;;;;;;;4942248;28;98640;-81
2023/04/24 13:39:11;;;;;;;14.20;1.85;;;;;;;;;;4943490;28;99373;-81
2023/04/24 13:41:37;;;;;;;6.10;1.52;;;;;;;;;;4910686;28;102072;-82
2023/04/24 13:44:04;;;;;;;5.50;1.40;;;;;;;;;;4941106;28;99170;-82
2023/04/24 13:46:30;;;;;;;5.70;1.50;;;;;;;;;;4949896;28;99960;-82
2023/04/24 13:48:57;;;;;;;9.65;1.60;;;;;;;;;;4942966;28;98737;-82
2023/04/24 13:51:26;;;;;;;9.00;1.73;;;;;;;;;;4942194;28;99136;-82
2023/04/24 13:53:53;;;;;;;8.27;1.80;;;;;;;;;;4927268;28;100322;-82
2023/04/24 13:56:20;;;;;;;7.15;1.67;;;;;;;;;;4900705;28;1159202;-82
2023/04/24 13:58:47;;;;;;;12.98;2.03;;;;;;;;;;4942391;28;102208;-82
2023/04/24 14:01:14;;;;;;;8.38;2.00;;;;;;;;;;4943358;28;99772;-82
2023/04/24 14:03:43;;;;;;;6.53;1.60;;;;;;;;;;4941970;28;98825;-82
2023/04/24 14:06:10;;;;;;;6.50;1.50;;;;;;;;;;4925688;28;99457;-82
2023/04/24 14:08:37;;;;;;;8.38;2.03;;;;;;;;;;4936172;28;106317;-81
2023/04/24 14:11:03;;;;;;;8.63;2.20;;;;;;;;;;4943240;28;98739;-82
2023/04/24 14:13:30;;;;;;;8.73;2.05;;;;;;;;;;4932780;28;100016;-81
2023/04/24 14:15:57;;;;;;;8.50;1.95;;;;;;;;;;4946650;28;99201;-81
2023/04/24 14:18:24;;;;;;;8.00;2.03;;;;;;;;;;4942574;28;98837;-81
2023/04/24 14:20:50;;;;;;;10.00;2.33;;;;;;;;;;4942423;28;99869;-81
2023/04/24 14:23:17;;;;;;;11.45;2.20;;;;;;;;;;4943219;28;98781;-80
2023/04/24 14:25:44;;;;;;;8.55;2.10;;;;;;;;;;4938580;28;99620;-80
2023/04/24 14:28:10;;;;;;;8.88;1.98;;;;;;;;;;4940059;28;99026;-80
2023/04/24 14:30:37;;;;;;;7.97;1.95;;;;;;;;;;4944175;28;99031;-82
2023/04/24 14:33:03;;;;;;;9.15;2.10;;;;;;;;;;4943408;28;99265;-81
2023/04/24 14:35:32;;;;;;;8.48;1.88;;;;;;;;;;4941883;28;99219;-81
2023/04/24 14:37:59;;;;;;;8.90;2.10;;;;;;;;;;4945289;28;98165;-81
2023/04/24 14:40:25;;;;;;;7.22;2.00;;;;;;;;;;4941900;28;99469;-81
2023/04/24 14:43:12;;;;;;;7.82;2.00;;;;;;;;;;4942263;28;98549;-83
2023/04/24 14:45:40;;;;;;;6.75;1.83;;;;;;;;;;4941960;28;99453;-83
2023/04/24 14:48:07;;;;;;;7.03;1.80;;;;;;;;;;4942440;28;99320;-82